Stations météo

Publicité
Klippeneck, Allemagne (10818): Température de l'air & dewpoint: 15.01.2018 04:00:00 - 21.01.2018 04:00:00 (CET)Klippeneck, Allemagne (10818): Température de l'air 5cm & Température de l'air -5cm: 15.01.2018 04:00:00 - 21.01.2018 04:00:00 (CET)Klippeneck, Allemagne (10818): Température de l'air -20cm & Température de l'air -100cm: 15.01.2018 04:00:00 - 21.01.2018 04:00:00 (CET)Klippeneck, Allemagne (10818): Vitesse du vent & gusts: 15.01.2018 04:00:00 - 21.01.2018 04:00:00 (CET)Klippeneck, Allemagne (10818): Direction du vent: 15.01.2018 04:00:00 - 21.01.2018 04:00:00 (CET)Klippeneck, Allemagne (10818): visibility: 15.01.2018 04:00:00 - 21.01.2018 04:00:00 (CET)Klippeneck, Allemagne (10818): Ensoleillement: 15.01.2018 04:00:00 - 21.01.2018 04:00:00 (CET)Klippeneck, Allemagne (10818): Quantités de précipitations: 15.01.2018 04:00:00 - 21.01.2018 04:00:00 (CET)
Date & Time tt [°C] td [°C] tt 5cm [°C] tt -5cm [°C] tt -20cm [°C] tt -100cm [°C] ff [km/h] ff [knt] fx [km/h] fx [knt] dd vv [km] sd [min] rr [mm]
21.01.2018 04:00:00 -0,4 -0,6 0,0 0,0 1,1 4,4 0 0 0 0 N 0,2 0 0,0
21.01.2018 03:00:00 -0,3 -0,4 0,0 0,0 1,1 4,4 0 0 0 0 N 0,2 0 0,0
21.01.2018 02:00:00 -0,2 -0,3 0,0 0,0 1,1 4,4 0 0 51 28 N 0,2 0 0,0
21.01.2018 01:00:00 0,1 0,0 0,0 0,0 1,1 4,4 29 16 49 26 NW 0,2 0 1,0
21.01.2018 00:00:00 1,3 1,2 0,0 0,0 1,1 4,4 27 14 42 23 W 0,1 0 1,0
20.01.2018 23:00:00 1,1 1,1 0,0 0,0 1,1 4,4 26 14 41 22 W 0,1 0 0,5
20.01.2018 22:00:00 0,8 0,8 0,0 0,0 1,1 4,4 26 14 41 22 WSW 0,2 0 1,0
20.01.2018 21:00:00 0,6 0,5 0,0 0,0 1,1 4,4 27 14 37 20 WSW 0,2 0 0,9
20.01.2018 20:00:00 0,2 0,2 0,0 0,0 1,1 4,4 26 14 48 26 WSW 0,1 0 1,5
20.01.2018 19:00:00 -0,7 -1,0 0,0 0,0 1,1 4,4 27 15 45 24 SSW 0,3 0 1,5
20.01.2018 18:00:00 -1,0 -1,7 0,0 0,0 1,1 4,4 25 14 46 25 S 0,9 0 0,8
20.01.2018 17:00:00 -0,9 -1,6 0,0 0,1 1,1 4,4 26 14 51 27 S 2,2 0 0,1
20.01.2018 16:00:00 -0,6 -2,2 0,0 0,1 1,1 4,4 27 15 49 27 S 6 0 0,0
20.01.2018 15:00:00 -0,9 -2,1 0,0 0,1 1,1 4,4 25 14 42 23 S 3,5 0 0,1
20.01.2018 14:00:00 -1,0 -2,3 0,0 0,1 1,1 4,4 20 11 40 22 SSW 7 0 0,0
20.01.2018 13:00:00 -1,0 -1,9 0,0 0,1 1,1 4,4 21 12 36 19 SSW 10 1 0,0
20.01.2018 12:00:00 -1,3 -1,8 -0,1 0,1 1,1 4,4 16 9 35 19 SSW 4,7 0 0,0
20.01.2018 11:00:00 -1,5 -2,0 -0,3 0,1 1,1 4,4 17 9 29 16 SW 3,4 0 0,1
20.01.2018 10:00:00 -1,7 -2,2 -0,5 0,1 1,1 4,4 17 9 32 17 SW 1,4 0 0,1
20.01.2018 09:00:00 -2,1 -2,6 -0,6 0,1 1,1 4,4 20 11 31 17 SW 13 0 0,1
20.01.2018 08:00:00 -2,2 -2,7 -0,7 0,1 1,1 4,4 21 11 35 19 SW 0,1 0 1,0
20.01.2018 07:00:00 -2,3 -2,7 -0,7 0,1 1,1 4,4 24 13 38 20 WSW 0,1 0 0,9
20.01.2018 06:00:00 -2,3 -2,7 -0,8 0,1 1,1 4,4 22 12 36 19 SW 0,5 0 0,0
20.01.2018 05:00:00 -2,4 -3,0 -0,9 0,1 1,1 4,5 16 9 30 16 SW 22 0 0,1
20.01.2018 04:00:00 -2,6 -3,4 -0,9 0,1 1,1 4,5 18 10 31 17 SW 30 0 0,2
20.01.2018 03:00:00 -2,6 -3,6 -0,9 0,1 1,1 4,5 18 10 29 16 WSW 69 0 0,0
20.01.2018 02:00:00 -2,7 -3,4 -0,8 0,1 1,1 4,5 14 7 27 14 WSW 28 0 0,0
20.01.2018 01:00:00 -2,7 -3,3 -0,5 0,0 1,1 4,5 16 9 31 17 W 15 0 0,1
20.01.2018 00:00:00 -1,8 -2,2 -0,4 0,1 1,1 4,5 21 11 31 17 W 0,1 0 0,8
19.01.2018 23:00:00 -1,8 -2,2 -0,3 0,0 1,1 4,5 19 10 45 24 W 0,2 0 0,8
19.01.2018 22:00:00 -1,3 -1,7 -0,3 0,0 1,1 4,5 19 10 35 19 WNW 0,1 0 1,0
19.01.2018 21:00:00 -1,2 -1,5 -0,3 0,0 1,1 4,5 16 9 33 18 W 0,1 0 1,3
19.01.2018 20:00:00 -1,2 -1,6 -0,2 0,0 1,1 4,5 23 13 37 20 WSW 1,4 0 0,2
19.01.2018 19:00:00 -1,1 -1,6 -0,1 0,0 1,1 4,5 19 11 30 16 SW 0,3 0 0,1
19.01.2018 18:00:00 -0,9 -2,6 0,0 0,0 1,1 4,5 16 9 31 17 SW 7 0 0,0
19.01.2018 17:00:00 -0,3 -3,3 0,0 0,0 1,1 4,5 18 10 35 19 WSW 70 18 0,0
19.01.2018 16:00:00 1,0 -4,0 0,0 0,0 1,1 4,5 23 12 50 27 WSW 24 47 0,0
19.01.2018 15:00:00 1,3 -3,7 0,0 0,1 1,1 4,5 25 13 44 24 W 27 34 0,0
19.01.2018 14:00:00 0,1 -4,2 0,0 0,0 1,1 4,5 27 15 44 24 W 40 12 0,0
19.01.2018 13:00:00 -0,2 -3,6 0,0 0,0 1,1 4,5 23 12 36 19 W 53 1 0,0
19.01.2018 12:00:00 -0,6 -3,4 -0,1 0,0 1,1 4,5 19 11 36 20 W 46 0 0,0
19.01.2018 11:00:00 -1,2 -3,3 -0,2 0,0 1,1 4,5 19 10 34 18 W 40 11 0,0
19.01.2018 10:00:00 -1,9 -3,9 0,0 0,0 1,1 4,5 26 14 47 26 W 56 52 0,0
19.01.2018 09:00:00 -1,9 -2,8 0,0 0,0 1,1 4,5 24 13 45 24 W 56 12 0,0
19.01.2018 08:00:00 -1,5 -2,1 0,0 0,0 1,1 4,5 24 13 42 23 W 51 0 0,0
19.01.2018 07:00:00 -1,0 -1,2 0,0 0,0 1,1 4,5 31 17 59 32 WNW 0,2 0 0,3
19.01.2018 06:00:00 -0,7 -1,0 0,0 0,0 1,1 4,5 27 15 49 26 W 0,3 0 0,2
19.01.2018 05:00:00 -0,7 -0,8 0,0 0,0 1,1 4,5 35 19 54 29 WNW 0,4 0 0,3
19.01.2018 04:00:00 0,9 0,2 0,0 0,0 1,1 4,5 29 16 54 29 W 70 0 0,0
19.01.2018 03:00:00 1,0 0,5 0,0 0,0 1,1 4,6 37 20 58 31 WSW 53 0 0,1
19.01.2018 02:00:00 0,5 0,2 0,0 0,0 1,1 4,6 28 15 41 22 WSW 0,3 0 0,5
19.01.2018 01:00:00 0,1 0,0 0,0 0,0 1,1 4,6 17 9 39 21 W 0,2 0 0,7
19.01.2018 00:00:00 0,6 0,3 0,0 0,0 1,1 4,6 29 16 58 31 W 0,2 0 0,1
18.01.2018 23:00:00 0,9 0,3 0,0 0,0 1,1 4,6 42 23 68 37 W 30 0 0,3
18.01.2018 22:00:00 0,7 0,5 0,0 0,0 1,1 4,6 27 15 41 22 WSW 0,3 0 0,9
18.01.2018 21:00:00 0,8 0,6 0,0 0,0 1,1 4,6 20 11 46 25 W 0,2 0 1,0
18.01.2018 20:00:00 1,6 1,5 0,0 0,0 1,1 4,6 30 16 61 33 W 0,1 0 1,8
18.01.2018 19:00:00 2,3 2,1 0,0 0,0 1,1 4,6 37 20 75 41 W 0,2 0 0,7
18.01.2018 18:00:00 2,8 2,3 0,0 0,1 1,2 4,6 41 22 63 34 WSW 11 0 0,2
18.01.2018 17:00:00 2,6 1,9 0,0 0,1 1,2 4,6 32 18 71 39 SW 70 0 0,0
18.01.2018 16:00:00 2,7 2,0 0,0 0,1 1,2 4,6 44 24 67 36 SW 63 0 0,0
18.01.2018 15:00:00 2,3 1,6 0,0 0,1 1,2 4,6 40 21 66 35 WSW 53 0 0,0
18.01.2018 14:00:00 2,0 1,4 0,0 0,1 1,2 4,6 41 22 61 33 WSW 70 0 0,0
18.01.2018 13:00:00 1,7 0,9 -0,1 0,1 1,2 4,6 41 22 75 40 SW 70 0 0,0
18.01.2018 12:00:00 1,0 0,7 -0,2 0,1 1,2 4,6 44 24 69 37 WSW 54 0 0,2
18.01.2018 11:00:00 0,1 0,1 -0,3 0,1 1,1 4,6 30 16 49 27 SW 0,5 0 0,2
18.01.2018 10:00:00 -0,2 -0,4 -0,4 0,1 1,1 4,6 34 18 51 28 WSW 0,6 0 0,3
18.01.2018 09:00:00 -1,0 -1,2 -0,4 0,1 1,1 4,6 29 15 51 27 SW 0,2 0 1,5
18.01.2018 08:00:00 -1,2 -1,5 -0,5 0,1 1,1 4,6 32 18 51 27 SW 0,1 0 0,9
18.01.2018 07:00:00 -1,3 -1,5 -0,5 0,1 1,1 4,6 24 13 44 24 SW 0,4 0 1,0
18.01.2018 06:00:00 -1,4 -1,7 -0,6 0,1 1,1 4,6 26 14 44 24 SW 0,2 0 1,0
18.01.2018 05:00:00 -1,5 -1,9 -0,6 0,1 1,1 4,6 25 14 39 21 SW 0,6 0 0,1
18.01.2018 04:00:00 -1,6 -1,9 -0,7 0,1 1,1 4,6 23 12 33 18 SW 0,4 0 0,3
18.01.2018 03:00:00 -1,9 -2,6 -0,7 0,1 1,1 4,6 21 12 36 19 WSW 8 0 0,1
18.01.2018 02:00:00 -2,1 -2,9 -0,7 0,1 1,1 4,7 24 13 40 22 WSW 39 0 0,0
18.01.2018 01:00:00 -2,4 -3,3 -0,8 0,1 1,1 4,7 27 15 39 21 WSW 8 0 0,0
18.01.2018 00:00:00 -2,4 -2,9 -0,8 0,1 1,1 4,7 22 12 32 18 WSW 0,3 0 0,1
17.01.2018 23:00:00 -2,4 -2,9 -0,9 0,1 1,1 4,7 21 11 31 17 WSW 8 0 3,4
17.01.2018 22:00:00 -2,5 -2,7 -0,9 0,1 1,1 4,7 26 14 50 27 W 0,1 0 0,8
17.01.2018 21:00:00 -2,4 -3,6 -1,0 0,1 1,1 4,7 27 15 39 21 W 33 0 0,3
17.01.2018 20:00:00 -2,5 -3,7 -1,0 0,1 1,1 4,7 25 13 44 24 W 18 0 0,1
17.01.2018 19:00:00 -2,8 -3,7 -1,0 0,1 1,1 4,7 22 12 44 24 W 3,2 0 0,1
17.01.2018 18:00:00 -3,1 -4,3 -0,8 0,1 1,1 4,7 24 13 45 24 W 29 0 0,0
17.01.2018 17:00:00 -3,1 -4,5 -0,8 0,1 1,1 4,7 21 11 34 18 W 48 0 0,0
17.01.2018 16:00:00 -3,2 -4,7 -0,5 0,1 1,1 4,7 20 11 43 23 W 6 0 0,0
17.01.2018 15:00:00 -3,0 -4,2 -0,3 0,1 1,1 4,7 22 12 38 21 W 12 3 0,1
17.01.2018 14:00:00 -3,0 -4,4 -0,3 0,0 1,1 4,7 27 15 41 22 W 30 18 0,0
17.01.2018 13:00:00 -3,5 -4,5 -0,6 0,0 1,1 4,7 29 16 49 27 WNW 11 0 0,0
17.01.2018 12:00:00 -3,6 -4,2 -0,8 0,0 1,1 4,7 33 18 54 29 WNW 8 0 1,2
17.01.2018 11:00:00 -2,8 -3,7 -0,7 0,0 1,1 4,7 28 15 44 24 W 4,3 0 0,4
17.01.2018 10:00:00 -3,1 -3,5 -0,9 0,0 1,1 4,7 26 14 58 31 W 0,6 0 0,9
17.01.2018 09:00:00 -3,2 -3,9 -0,8 0,0 1,1 4,7 34 18 55 30 W 0,3 0 0,4
17.01.2018 08:00:00 -2,8 -3,2 -0,7 0,0 1,1 4,7 31 17 62 33 W 0,3 0 3,0
17.01.2018 07:00:00 -1,5 -1,9 -0,5 0,0 1,1 4,7 30 16 48 26 W 0,5 0 1,4
17.01.2018 06:00:00 -1,6 -2,2 -0,4 0,0 1,0 4,7 31 17 50 27 W 9 0 0,4
17.01.2018 05:00:00 -1,2 -1,6 -0,4 0,0 1,0 4,7 21 11 36 19 W 0,8 0 0,6
17.01.2018 04:00:00 -1,2 -1,5 -0,4 0,0 1,0 4,8 24 13 41 22 W 0,2 0 0,4
17.01.2018 03:00:00 -0,7 -1,1 -0,3 0,0 1,0 4,8 27 15 40 22 W 31 0 0,1
17.01.2018 02:00:00 -0,6 -0,8 -0,2 0,0 1,0 4,8 29 15 46 25 W 18 0 3,6
17.01.2018 01:00:00 -0,3 -0,5 -0,3 0,0 1,0 4,8 23 12 34 18 WSW 0,1 0 0,4
17.01.2018 00:00:00 -0,1 -0,3 -0,3 0,0 1,0 4,8 25 14 35 19 WSW 0,9 0 0,2
16.01.2018 23:00:00 -0,5 -0,7 -0,5 -0,1 1,0 4,8 26 14 41 22 W 0,2 0 1,3
16.01.2018 22:00:00 -0,3 -0,4 -0,5 -0,1 1,0 4,8 29 16 50 27 W 0,2 0 0,9
16.01.2018 21:00:00 -0,6 -0,7 -0,4 -0,1 1,0 4,8 26 14 55 30 W 0,2 0 2,1
16.01.2018 20:00:00 -0,1 -0,4 0,0 0,0 1,0 4,8 34 19 87 47 WNW 0,1 0 0,9
16.01.2018 19:00:00 1,7 0,6 1,1 0,0 0,9 4,8 33 18 49 27 W 70 0 0,0
16.01.2018 18:00:00 1,0 0,5 0,5 -0,1 0,9 4,8 21 11 68 37 W 1,0 0 0,1
16.01.2018 17:00:00 2,1 0,4 1,4 -0,3 0,9 4,8 45 24 74 40 W 37 1 0,1
16.01.2018 16:00:00 1,6 1,0 1,6 -0,4 0,9 4,8 42 23 67 36 W 70 0 0,1
16.01.2018 15:00:00 0,8 0,7 0,8 -0,4 0,9 4,8 46 25 79 43 W 0,3 0 1,1
16.01.2018 14:00:00 2,6 2,1 2,5 -0,4 0,9 4,8 45 24 68 37 W 50 0 0,3
16.01.2018 13:00:00 3,1 2,9 3,0 -0,4 0,9 4,8 39 21 78 42 WSW 1,1 0 0,5
16.01.2018 12:00:00 2,3 2,2 2,2 -0,4 0,9 4,8 29 16 71 38 W 0,2 0 1,0
16.01.2018 11:00:00 1,9 1,6 1,8 -0,4 0,9 4,8 39 21 79 42 WSW 4,8 0 0,0
16.01.2018 10:00:00 2,6 2,3 2,4 -0,4 0,9 4,8 44 24 68 37 WSW 70 0 0,8
16.01.2018 09:00:00 2,3 1,9 2,0 -0,4 0,9 4,8 41 22 67 36 WSW 10 0 0,3
16.01.2018 08:00:00 1,8 1,7 1,6 -0,4 0,9 4,8 39 21 66 36 WSW 0,2 0 0,8
16.01.2018 07:00:00 1,3 1,1 1,0 -0,4 0,9 4,8 39 21 61 33 SW 0,4 0 0,6
16.01.2018 06:00:00 1,5 1,0 1,2 -0,4 0,9 4,8 34 18 59 32 SW 32 0 0,0
16.01.2018 05:00:00 1,7 1,0 1,3 -0,4 0,9 4,8 31 17 53 29 WSW 7 0 0,1
16.01.2018 04:00:00 2,3 0,8 1,7 -0,4 0,9 4,8 37 20 66 35 WSW 70 0 0,0
16.01.2018 03:00:00 2,1 1,0 1,5 -0,4 0,9 4,8 41 22 68 37 WSW 38 0 0,0
16.01.2018 02:00:00 1,5 0,9 1,0 -0,4 0,9 4,8 30 16 51 28 WSW 58 0 0,0
16.01.2018 01:00:00 1,3 0,8 0,9 -0,4 0,9 4,9 36 19 69 37 SW 17 0 0,2
16.01.2018 00:00:00 1,2 0,7 0,8 -0,4 0,9 4,9 36 20 65 35 SW 17 0 0,0
15.01.2018 23:00:00 0,8 0,5 0,5 -0,4 0,9 4,9 33 18 58 32 SW 9 0 0,2
15.01.2018 22:00:00 0,4 0,1 0,1 -0,4 0,9 4,9 33 18 59 32 SW 2,9 0 0,6
15.01.2018 21:00:00 0,4 -0,1 0,0 -0,5 0,9 4,9 32 17 67 36 SW 1,7 0 0,4
15.01.2018 20:00:00 1,1 -0,8 0,5 -0,5 1,0 4,9 32 17 58 31 SW 8 0 0,1
15.01.2018 19:00:00 1,0 -2,5 0,6 -0,5 1,0 4,9 29 16 51 27 SSW 18 0 0,0
15.01.2018 18:00:00 1,0 -2,6 0,4 -0,5 1,0 4,9 31 17 55 30 SSW 20 0 0,0
15.01.2018 17:00:00 1,2 -2,8 0,6 -0,5 1,0 4,9 31 17 54 29 SSW 24 0 0,0
15.01.2018 16:00:00 1,0 -3,4 0,5 -0,5 1,0 4,9 24 13 41 22 SSW 26 0 0,0
15.01.2018 15:00:00 1,4 -2,6 1,1 -0,5 1,0 4,9 20 11 36 20 S 29 0 0,0
15.01.2018 14:00:00 2,3 -2,0 2,3 -0,6 1,0 4,9 19 11 31 17 SSW 39 0 0,0
15.01.2018 13:00:00 1,8 -2,1 1,9 -0,6 1,0 4,9 19 10 30 16 SSW 26 0 0,0
15.01.2018 12:00:00 -0,3 -2,7 0,1 -0,7 1,0 4,9 11 6 28 15 S 10 0 0,0
15.01.2018 11:00:00 1,1 -2,8 0,8 -0,8 1,0 4,9 15 8 25 14 SSW 29 19 0,0
15.01.2018 10:00:00 0,3 -4,3 0,9 -0,9 1,1 4,9 10 5 24 13 S 26 47 0,0
15.01.2018 09:00:00 -1,4 -5,3 -2,6 -1,0 1,1 4,9 13 7 23 12 S 24 0 0,0
15.01.2018 08:00:00 -3,5 -5,3 -4,0 -1,0 1,1 4,9 16 9 22 12 SE 9 0 0,0
15.01.2018 07:00:00 -2,1 -5,8 -4,3 -0,9 1,1 4,9 9 5 19 10 S 44 0 0,0
15.01.2018 06:00:00 -0,6 -5,3 -3,2 -0,9 1,2 4,9 12 7 26 14 S 52 0 0,0
15.01.2018 05:00:00 -0,3 -4,6 -3,4 -0,8 1,2 4,9 16 9 26 14 S 44 0 0,0
15.01.2018 04:00:00 -3,1 -5,5 -4,5 -0,7 1,2 4,9 12 6 28 15 S 14 0 0,0

tt = Température de l'air
td = dewpoint
tt 5cm = Température de l'air 5cm
tt -5cm = Température de l'air -5cm
tt -20cm = Température de l'air -20cm
tt -100cm = Température de l'air -100cm
ff = Vitesse du vent
fx = gusts
dd = Direction du vent
vv = visibility
sd = Ensoleillement
rr = Quantités de précipitations

stations d'obs. à proximité